sensor_id;sensor_type;location;lat;lon;timestamp;P1;durP1;ratioP1;P2;durP2;ratioP2
28070;SDS011;15383;48.408;9.968;2024-02-23T00:01:28;0.32;;;0.32;;
28070;SDS011;15383;48.408;9.968;2024-02-23T00:03:53;0.40;;;0.40;;
28070;SDS011;15383;48.408;9.968;2024-02-23T00:06:20;0.50;;;0.50;;
28070;SDS011;15383;48.408;9.968;2024-02-23T00:08:46;2.55;;;1.17;;
28070;SDS011;15383;48.408;9.968;2024-02-23T00:11:11;0.50;;;0.50;;
28070;SDS011;15383;48.408;9.968;2024-02-23T00:13:37;0.50;;;0.50;;
28070;SDS011;15383;48.408;9.968;2024-02-23T00:16:03;0.55;;;0.55;;
28070;SDS011;15383;48.408;9.968;2024-02-23T00:18:29;2.65;;;0.60;;
28070;SDS011;15383;48.408;9.968;2024-02-23T00:20:54;0.63;;;0.60;;
28070;SDS011;15383;48.408;9.968;2024-02-23T00:23:21;0.55;;;0.50;;
28070;SDS011;15383;48.408;9.968;2024-02-23T00:25:47;0.57;;;0.57;;
28070;SDS011;15383;48.408;9.968;2024-02-23T00:28:13;0.47;;;0.47;;
28070;SDS011;15383;48.408;9.968;2024-02-23T00:30:38;0.45;;;0.45;;
28070;SDS011;15383;48.408;9.968;2024-02-23T00:33:04;0.98;;;0.50;;
28070;SDS011;15383;48.408;9.968;2024-02-23T00:35:30;0.50;;;0.50;;
28070;SDS011;15383;48.408;9.968;2024-02-23T00:37:56;0.60;;;0.60;;
28070;SDS011;15383;48.408;9.968;2024-02-23T00:40:21;0.55;;;0.43;;
28070;SDS011;15383;48.408;9.968;2024-02-23T00:42:48;0.50;;;0.47;;
28070;SDS011;15383;48.408;9.968;2024-02-23T00:45:14;0.90;;;0.60;;
28070;SDS011;15383;48.408;9.968;2024-02-23T00:47:40;1.25;;;0.50;;
28070;SDS011;15383;48.408;9.968;2024-02-23T00:50:05;1.13;;;0.60;;
28070;SDS011;15383;48.408;9.968;2024-02-23T00:52:31;0.65;;;0.40;;
28070;SDS011;15383;48.408;9.968;2024-02-23T00:54:57;1.70;;;0.60;;
28070;SDS011;15383;48.408;9.968;2024-02-23T00:57:23;0.50;;;0.50;;
28070;SDS011;15383;48.408;9.968;2024-02-23T00:59:52;0.55;;;0.55;;
28070;SDS011;15383;48.408;9.968;2024-02-23T01:02:18;0.95;;;0.40;;
28070;SDS011;15383;48.408;9.968;2024-02-23T01:04:43;0.30;;;0.30;;
28070;SDS011;15383;48.408;9.968;2024-02-23T01:07:09;1.67;;;0.47;;
28070;SDS011;15383;48.408;9.968;2024-02-23T01:09:35;0.65;;;0.50;;
28070;SDS011;15383;48.408;9.968;2024-02-23T01:12:01;0.85;;;0.40;;
28070;SDS011;15383;48.408;9.968;2024-02-23T01:14:26;1.58;;;0.40;;
28070;SDS011;15383;48.408;9.968;2024-02-23T01:16:52;0.30;;;0.30;;
28070;SDS011;15383;48.408;9.968;2024-02-23T01:19:17;0.47;;;0.40;;
28070;SDS011;15383;48.408;9.968;2024-02-23T01:21:43;2.53;;;0.40;;
28070;SDS011;15383;48.408;9.968;2024-02-23T01:24:09;0.30;;;0.30;;
28070;SDS011;15383;48.408;9.968;2024-02-23T01:26:35;0.35;;;0.35;;
28070;SDS011;15383;48.408;9.968;2024-02-23T01:29:01;0.35;;;0.35;;
28070;SDS011;15383;48.408;9.968;2024-02-23T01:31:28;0.30;;;0.30;;
28070;SDS011;15383;48.408;9.968;2024-02-23T01:33:54;0.40;;;0.40;;
28070;SDS011;15383;48.408;9.968;2024-02-23T01:36:19;1.98;;;0.57;;
28070;SDS011;15383;48.408;9.968;2024-02-23T01:38:45;0.40;;;0.40;;
28070;SDS011;15383;48.408;9.968;2024-02-23T01:41:11;0.40;;;0.40;;
28070;SDS011;15383;48.408;9.968;2024-02-23T01:43:37;1.05;;;0.50;;
28070;SDS011;15383;48.408;9.968;2024-02-23T01:46:02;0.40;;;0.30;;
28070;SDS011;15383;48.408;9.968;2024-02-23T01:48:29;0.32;;;0.32;;
28070;SDS011;15383;48.408;9.968;2024-02-23T01:50:56;0.85;;;0.50;;
28070;SDS011;15383;48.408;9.968;2024-02-23T01:53:22;0.90;;;0.57;;
28070;SDS011;15383;48.408;9.968;2024-02-23T01:55:50;0.40;;;0.32;;
28070;SDS011;15383;48.408;9.968;2024-02-23T01:58:16;1.33;;;0.30;;
28070;SDS011;15383;48.408;9.968;2024-02-23T02:00:43;0.35;;;0.35;;
28070;SDS011;15383;48.408;9.968;2024-02-23T02:03:08;0.30;;;0.30;;
28070;SDS011;15383;48.408;9.968;2024-02-23T02:05:35;1.30;;;0.30;;
28070;SDS011;15383;48.408;9.968;2024-02-23T02:08:02;0.22;;;0.22;;
28070;SDS011;15383;48.408;9.968;2024-02-23T02:10:28;0.38;;;0.38;;
28070;SDS011;15383;48.408;9.968;2024-02-23T02:12:53;0.32;;;0.32;;
28070;SDS011;15383;48.408;9.968;2024-02-23T02:15:19;0.38;;;0.38;;
28070;SDS011;15383;48.408;9.968;2024-02-23T02:17:46;1.58;;;0.40;;
28070;SDS011;15383;48.408;9.968;2024-02-23T02:20:12;0.30;;;0.30;;
28070;SDS011;15383;48.408;9.968;2024-02-23T02:22:39;0.40;;;0.30;;
28070;SDS011;15383;48.408;9.968;2024-02-23T02:25:05;0.20;;;0.20;;
28070;SDS011;15383;48.408;9.968;2024-02-23T02:27:31;0.63;;;0.63;;
28070;SDS011;15383;48.408;9.968;2024-02-23T02:29:57;0.47;;;0.47;;
28070;SDS011;15383;48.408;9.968;2024-02-23T02:32:22;0.30;;;0.30;;
28070;SDS011;15383;48.408;9.968;2024-02-23T02:34:48;0.63;;;0.40;;
28070;SDS011;15383;48.408;9.968;2024-02-23T02:37:14;2.17;;;0.52;;
28070;SDS011;15383;48.408;9.968;2024-02-23T02:39:40;0.35;;;0.35;;
28070;SDS011;15383;48.408;9.968;2024-02-23T02:42:06;0.30;;;0.30;;
28070;SDS011;15383;48.408;9.968;2024-02-23T02:44:31;0.45;;;0.40;;
28070;SDS011;15383;48.408;9.968;2024-02-23T02:46:57;0.90;;;0.40;;
28070;SDS011;15383;48.408;9.968;2024-02-23T02:49:23;1.23;;;0.60;;
28070;SDS011;15383;48.408;9.968;2024-02-23T02:51:49;0.30;;;0.30;;
28070;SDS011;15383;48.408;9.968;2024-02-23T02:54:15;0.43;;;0.43;;
28070;SDS011;15383;48.408;9.968;2024-02-23T02:56:44;0.70;;;0.70;;
28070;SDS011;15383;48.408;9.968;2024-02-23T02:59:13;0.43;;;0.40;;
28070;SDS011;15383;48.408;9.968;2024-02-23T03:01:39;0.40;;;0.40;;
28070;SDS011;15383;48.408;9.968;2024-02-23T03:04:04;0.55;;;0.32;;
28070;SDS011;15383;48.408;9.968;2024-02-23T03:06:30;0.40;;;0.40;;
28070;SDS011;15383;48.408;9.968;2024-02-23T03:08:56;0.40;;;0.40;;
28070;SDS011;15383;48.408;9.968;2024-02-23T03:11:21;0.30;;;0.30;;
28070;SDS011;15383;48.408;9.968;2024-02-23T03:13:47;0.47;;;0.45;;
28070;SDS011;15383;48.408;9.968;2024-02-23T03:16:19;0.32;;;0.32;;
28070;SDS011;15383;48.408;9.968;2024-02-23T03:18:46;0.40;;;0.40;;
28070;SDS011;15383;48.408;9.968;2024-02-23T03:21:12;1.55;;;0.55;;
28070;SDS011;15383;48.408;9.968;2024-02-23T03:23:40;1.65;;;0.40;;
28070;SDS011;15383;48.408;9.968;2024-02-23T03:26:07;1.70;;;0.43;;
28070;SDS011;15383;48.408;9.968;2024-02-23T03:28:33;0.38;;;0.38;;
28070;SDS011;15383;48.408;9.968;2024-02-23T03:30:59;0.30;;;0.30;;
28070;SDS011;15383;48.408;9.968;2024-02-23T03:33:25;0.43;;;0.43;;
28070;SDS011;15383;48.408;9.968;2024-02-23T03:35:51;1.20;;;0.50;;
28070;SDS011;15383;48.408;9.968;2024-02-23T03:38:17;1.33;;;0.45;;
28070;SDS011;15383;48.408;9.968;2024-02-23T03:40:42;0.60;;;0.50;;
28070;SDS011;15383;48.408;9.968;2024-02-23T03:43:08;0.30;;;0.30;;
28070;SDS011;15383;48.408;9.968;2024-02-23T03:45:34;0.30;;;0.30;;
28070;SDS011;15383;48.408;9.968;2024-02-23T03:47:59;0.50;;;0.50;;
28070;SDS011;15383;48.408;9.968;2024-02-23T03:50:28;0.40;;;0.40;;
28070;SDS011;15383;48.408;9.968;2024-02-23T03:52:54;0.43;;;0.40;;
28070;SDS011;15383;48.408;9.968;2024-02-23T03:55:20;2.25;;;0.50;;
28070;SDS011;15383;48.408;9.968;2024-02-23T03:57:46;0.40;;;0.40;;
28070;SDS011;15383;48.408;9.968;2024-02-23T04:00:12;0.50;;;0.50;;
28070;SDS011;15383;48.408;9.968;2024-02-23T04:02:39;0.40;;;0.40;;
28070;SDS011;15383;48.408;9.968;2024-02-23T04:05:05;0.30;;;0.30;;
28070;SDS011;15383;48.408;9.968;2024-02-23T04:07:31;0.40;;;0.40;;
28070;SDS011;15383;48.408;9.968;2024-02-23T04:09:57;1.98;;;0.60;;
28070;SDS011;15383;48.408;9.968;2024-02-23T04:12:22;0.30;;;0.30;;
28070;SDS011;15383;48.408;9.968;2024-02-23T04:14:49;1.77;;;0.52;;
28070;SDS011;15383;48.408;9.968;2024-02-23T04:17:15;1.80;;;0.43;;
28070;SDS011;15383;48.408;9.968;2024-02-23T04:19:41;0.80;;;0.43;;
28070;SDS011;15383;48.408;9.968;2024-02-23T04:22:08;0.40;;;0.40;;
28070;SDS011;15383;48.408;9.968;2024-02-23T04:24:35;1.40;;;0.47;;
28070;SDS011;15383;48.408;9.968;2024-02-23T04:27:03;0.40;;;0.40;;
28070;SDS011;15383;48.408;9.968;2024-02-23T04:29:29;0.40;;;0.40;;
28070;SDS011;15383;48.408;9.968;2024-02-23T04:31:54;1.98;;;0.40;;
28070;SDS011;15383;48.408;9.968;2024-02-23T04:34:20;0.85;;;0.30;;
28070;SDS011;15383;48.408;9.968;2024-02-23T04:36:46;0.40;;;0.40;;
28070;SDS011;15383;48.408;9.968;2024-02-23T04:39:11;2.45;;;1.15;;
28070;SDS011;15383;48.408;9.968;2024-02-23T04:41:37;0.50;;;0.50;;
28070;SDS011;15383;48.408;9.968;2024-02-23T04:44:02;0.47;;;0.47;;
28070;SDS011;15383;48.408;9.968;2024-02-23T04:46:28;0.50;;;0.50;;
28070;SDS011;15383;48.408;9.968;2024-02-23T04:48:54;0.35;;;0.35;;
28070;SDS011;15383;48.408;9.968;2024-02-23T04:51:20;1.55;;;0.65;;
28070;SDS011;15383;48.408;9.968;2024-02-23T04:53:47;0.50;;;0.50;;
28070;SDS011;15383;48.408;9.968;2024-02-23T04:56:13;0.50;;;0.50;;
28070;SDS011;15383;48.408;9.968;2024-02-23T04:58:38;0.40;;;0.40;;
28070;SDS011;15383;48.408;9.968;2024-02-23T05:01:06;0.52;;;0.52;;
28070;SDS011;15383;48.408;9.968;2024-02-23T05:03:31;0.30;;;0.30;;
28070;SDS011;15383;48.408;9.968;2024-02-23T05:05:57;0.40;;;0.40;;
28070;SDS011;15383;48.408;9.968;2024-02-23T05:08:23;0.40;;;0.40;;
28070;SDS011;15383;48.408;9.968;2024-02-23T05:10:49;0.40;;;0.40;;
28070;SDS011;15383;48.408;9.968;2024-02-23T05:13:18;0.40;;;0.40;;
28070;SDS011;15383;48.408;9.968;2024-02-23T05:15:44;0.50;;;0.50;;
28070;SDS011;15383;48.408;9.968;2024-02-23T05:18:09;0.40;;;0.40;;
28070;SDS011;15383;48.408;9.968;2024-02-23T05:20:35;0.57;;;0.57;;
28070;SDS011;15383;48.408;9.968;2024-02-23T05:23:00;1.67;;;0.45;;
28070;SDS011;15383;48.408;9.968;2024-02-23T05:25:26;0.40;;;0.40;;
28070;SDS011;15383;48.408;9.968;2024-02-23T05:27:52;0.75;;;0.70;;
28070;SDS011;15383;48.408;9.968;2024-02-23T05:30:18;0.63;;;0.50;;
28070;SDS011;15383;48.408;9.968;2024-02-23T05:32:44;0.50;;;0.50;;
28070;SDS011;15383;48.408;9.968;2024-02-23T05:35:09;0.40;;;0.40;;
28070;SDS011;15383;48.408;9.968;2024-02-23T05:37:35;3.17;;;0.60;;
28070;SDS011;15383;48.408;9.968;2024-02-23T05:40:02;0.47;;;0.47;;
28070;SDS011;15383;48.408;9.968;2024-02-23T05:42:31;0.50;;;0.50;;
28070;SDS011;15383;48.408;9.968;2024-02-23T05:44:57;0.43;;;0.43;;
28070;SDS011;15383;48.408;9.968;2024-02-23T05:47:23;0.98;;;0.60;;
28070;SDS011;15383;48.408;9.968;2024-02-23T05:49:50;2.85;;;0.60;;
28070;SDS011;15383;48.408;9.968;2024-02-23T05:52:15;1.10;;;0.50;;
28070;SDS011;15383;48.408;9.968;2024-02-23T05:54:41;0.70;;;0.55;;
28070;SDS011;15383;48.408;9.968;2024-02-23T05:57:07;1.23;;;0.50;;
28070;SDS011;15383;48.408;9.968;2024-02-23T05:59:32;0.55;;;0.55;;
28070;SDS011;15383;48.408;9.968;2024-02-23T06:01:58;0.50;;;0.50;;
28070;SDS011;15383;48.408;9.968;2024-02-23T06:04:23;1.08;;;1.00;;
28070;SDS011;15383;48.408;9.968;2024-02-23T06:06:49;0.60;;;0.60;;
28070;SDS011;15383;48.408;9.968;2024-02-23T06:09:15;2.28;;;0.70;;
28070;SDS011;15383;48.408;9.968;2024-02-23T06:11:41;1.02;;;0.70;;
28070;SDS011;15383;48.408;9.968;2024-02-23T06:14:07;0.88;;;0.70;;
28070;SDS011;15383;48.408;9.968;2024-02-23T06:16:33;0.70;;;0.70;;
28070;SDS011;15383;48.408;9.968;2024-02-23T06:18:58;1.30;;;0.60;;
28070;SDS011;15383;48.408;9.968;2024-02-23T06:21:24;1.88;;;0.85;;
28070;SDS011;15383;48.408;9.968;2024-02-23T06:23:50;0.60;;;0.60;;
28070;SDS011;15383;48.408;9.968;2024-02-23T06:26:15;0.60;;;0.60;;
28070;SDS011;15383;48.408;9.968;2024-02-23T06:28:41;2.28;;;0.73;;
28070;SDS011;15383;48.408;9.968;2024-02-23T06:31:08;1.83;;;0.85;;
28070;SDS011;15383;48.408;9.968;2024-02-23T06:33:34;0.60;;;0.60;;
28070;SDS011;15383;48.408;9.968;2024-02-23T06:36:00;0.60;;;0.60;;
28070;SDS011;15383;48.408;9.968;2024-02-23T06:38:25;1.10;;;0.60;;
28070;SDS011;15383;48.408;9.968;2024-02-23T06:40:51;0.95;;;0.75;;
28070;SDS011;15383;48.408;9.968;2024-02-23T06:43:17;0.68;;;0.68;;
28070;SDS011;15383;48.408;9.968;2024-02-23T06:45:43;0.95;;;0.82;;
28070;SDS011;15383;48.408;9.968;2024-02-23T06:48:09;2.00;;;0.85;;
28070;SDS011;15383;48.408;9.968;2024-02-23T06:50:35;0.73;;;0.70;;
28070;SDS011;15383;48.408;9.968;2024-02-23T06:53:00;0.73;;;0.50;;
28070;SDS011;15383;48.408;9.968;2024-02-23T06:55:27;3.70;;;0.73;;
28070;SDS011;15383;48.408;9.968;2024-02-23T06:57:53;0.70;;;0.70;;
28070;SDS011;15383;48.408;9.968;2024-02-23T07:00:20;0.70;;;0.70;;
28070;SDS011;15383;48.408;9.968;2024-02-23T07:02:46;0.80;;;0.70;;
28070;SDS011;15383;48.408;9.968;2024-02-23T07:05:12;0.60;;;0.60;;
28070;SDS011;15383;48.408;9.968;2024-02-23T07:07:38;2.92;;;0.73;;
28070;SDS011;15383;48.408;9.968;2024-02-23T07:10:05;3.75;;;0.95;;
28070;SDS011;15383;48.408;9.968;2024-02-23T07:12:31;0.70;;;0.70;;
28070;SDS011;15383;48.408;9.968;2024-02-23T07:14:57;1.75;;;1.00;;
28070;SDS011;15383;48.408;9.968;2024-02-23T07:17:23;1.10;;;0.73;;
28070;SDS011;15383;48.408;9.968;2024-02-23T07:19:48;1.50;;;0.93;;
28070;SDS011;15383;48.408;9.968;2024-02-23T07:22:15;1.23;;;0.73;;
28070;SDS011;15383;48.408;9.968;2024-02-23T07:24:43;4.78;;;0.70;;
28070;SDS011;15383;48.408;9.968;2024-02-23T07:27:09;1.95;;;1.05;;
28070;SDS011;15383;48.408;9.968;2024-02-23T07:29:34;1.42;;;0.80;;
28070;SDS011;15383;48.408;9.968;2024-02-23T07:32:00;1.85;;;0.93;;
28070;SDS011;15383;48.408;9.968;2024-02-23T07:34:26;1.17;;;0.57;;
28070;SDS011;15383;48.408;9.968;2024-02-23T07:36:52;0.63;;;0.63;;
28070;SDS011;15383;48.408;9.968;2024-02-23T07:39:18;0.60;;;0.60;;
28070;SDS011;15383;48.408;9.968;2024-02-23T07:41:46;0.60;;;0.50;;
28070;SDS011;15383;48.408;9.968;2024-02-23T07:44:11;6.13;;;0.88;;
28070;SDS011;15383;48.408;9.968;2024-02-23T07:46:37;1.42;;;0.88;;
28070;SDS011;15383;48.408;9.968;2024-02-23T07:49:03;4.72;;;0.90;;
28070;SDS011;15383;48.408;9.968;2024-02-23T07:51:30;1.17;;;0.98;;
28070;SDS011;15383;48.408;9.968;2024-02-23T07:53:56;3.80;;;1.00;;
28070;SDS011;15383;48.408;9.968;2024-02-23T07:56:22;1.40;;;0.70;;
28070;SDS011;15383;48.408;9.968;2024-02-23T07:58:47;4.95;;;1.05;;
28070;SDS011;15383;48.408;9.968;2024-02-23T08:01:16;0.43;;;0.43;;
28070;SDS011;15383;48.408;9.968;2024-02-23T08:03:42;1.85;;;0.88;;
28070;SDS011;15383;48.408;9.968;2024-02-23T08:06:08;1.00;;;0.80;;
28070;SDS011;15383;48.408;9.968;2024-02-23T08:08:35;2.75;;;0.70;;
28070;SDS011;15383;48.408;9.968;2024-02-23T08:11:03;2.78;;;0.70;;
28070;SDS011;15383;48.408;9.968;2024-02-23T08:13:29;0.60;;;0.60;;
28070;SDS011;15383;48.408;9.968;2024-02-23T08:15:56;1.40;;;0.90;;
28070;SDS011;15383;48.408;9.968;2024-02-23T08:18:23;1.02;;;0.60;;
28070;SDS011;15383;48.408;9.968;2024-02-23T08:20:48;1.35;;;0.90;;
28070;SDS011;15383;48.408;9.968;2024-02-23T08:23:14;3.75;;;0.80;;
28070;SDS011;15383;48.408;9.968;2024-02-23T08:25:40;0.75;;;0.75;;
28070;SDS011;15383;48.408;9.968;2024-02-23T08:28:06;0.95;;;0.85;;
28070;SDS011;15383;48.408;9.968;2024-02-23T08:30:32;1.88;;;1.00;;
28070;SDS011;15383;48.408;9.968;2024-02-23T08:32:57;2.20;;;0.85;;
28070;SDS011;15383;48.408;9.968;2024-02-23T08:35:23;1.30;;;0.80;;
28070;SDS011;15383;48.408;9.968;2024-02-23T08:37:49;0.77;;;0.77;;
28070;SDS011;15383;48.408;9.968;2024-02-23T08:40:15;1.17;;;0.73;;
28070;SDS011;15383;48.408;9.968;2024-02-23T08:42:40;4.40;;;1.60;;
28070;SDS011;15383;48.408;9.968;2024-02-23T08:45:07;1.05;;;0.90;;
28070;SDS011;15383;48.408;9.968;2024-02-23T08:47:34;2.47;;;0.95;;
28070;SDS011;15383;48.408;9.968;2024-02-23T08:50:00;1.45;;;1.00;;
28070;SDS011;15383;48.408;9.968;2024-02-23T08:52:26;2.35;;;0.90;;
28070;SDS011;15383;48.408;9.968;2024-02-23T08:54:52;5.72;;;1.00;;
28070;SDS011;15383;48.408;9.968;2024-02-23T08:57:17;0.95;;;0.80;;
28070;SDS011;15383;48.408;9.968;2024-02-23T08:59:45;3.05;;;0.90;;
28070;SDS011;15383;48.408;9.968;2024-02-23T09:02:11;1.30;;;0.80;;
28070;SDS011;15383;48.408;9.968;2024-02-23T09:04:36;3.13;;;0.70;;
28070;SDS011;15383;48.408;9.968;2024-02-23T09:07:02;2.25;;;0.93;;
28070;SDS011;15383;48.408;9.968;2024-02-23T09:09:28;0.75;;;0.63;;
28070;SDS011;15383;48.408;9.968;2024-02-23T09:11:54;1.45;;;0.80;;
28070;SDS011;15383;48.408;9.968;2024-02-23T09:14:19;1.23;;;0.85;;
28070;SDS011;15383;48.408;9.968;2024-02-23T09:16:45;2.70;;;0.85;;
28070;SDS011;15383;48.408;9.968;2024-02-23T09:19:16;0.93;;;0.70;;
28070;SDS011;15383;48.408;9.968;2024-02-23T09:21:42;4.00;;;0.90;;
28070;SDS011;15383;48.408;9.968;2024-02-23T09:24:07;3.90;;;1.23;;
28070;SDS011;15383;48.408;9.968;2024-02-23T09:26:33;6.80;;;1.00;;
28070;SDS011;15383;48.408;9.968;2024-02-23T09:28:58;3.17;;;1.17;;
28070;SDS011;15383;48.408;9.968;2024-02-23T09:31:24;1.45;;;0.90;;
28070;SDS011;15383;48.408;9.968;2024-02-23T09:33:51;5.20;;;1.25;;
28070;SDS011;15383;48.408;9.968;2024-02-23T09:36:17;4.18;;;0.70;;
28070;SDS011;15383;48.408;9.968;2024-02-23T09:38:42;0.82;;;0.63;;
28070;SDS011;15383;48.408;9.968;2024-02-23T09:41:11;3.00;;;0.77;;
28070;SDS011;15383;48.408;9.968;2024-02-23T09:43:44;3.10;;;0.77;;
28070;SDS011;15383;48.408;9.968;2024-02-23T09:46:11;4.78;;;0.80;;
28070;SDS011;15383;48.408;9.968;2024-02-23T09:48:37;1.10;;;0.80;;
28070;SDS011;15383;48.408;9.968;2024-02-23T09:51:03;0.75;;;0.70;;
28070;SDS011;15383;48.408;9.968;2024-02-23T09:53:31;2.55;;;0.98;;
28070;SDS011;15383;48.408;9.968;2024-02-23T09:55:59;3.97;;;0.80;;
28070;SDS011;15383;48.408;9.968;2024-02-23T09:58:26;0.68;;;0.65;;
28070;SDS011;15383;48.408;9.968;2024-02-23T10:00:55;1.48;;;0.90;;
28070;SDS011;15383;48.408;9.968;2024-02-23T10:03:22;2.22;;;0.88;;
28070;SDS011;15383;48.408;9.968;2024-02-23T10:05:51;1.20;;;0.80;;
28070;SDS011;15383;48.408;9.968;2024-02-23T10:08:16;2.53;;;1.00;;
28070;SDS011;15383;48.408;9.968;2024-02-23T10:10:42;1.63;;;1.08;;
28070;SDS011;15383;48.408;9.968;2024-02-23T10:13:11;1.95;;;1.02;;
28070;SDS011;15383;48.408;9.968;2024-02-23T10:15:37;4.20;;;1.00;;
28070;SDS011;15383;48.408;9.968;2024-02-23T10:18:03;5.70;;;1.13;;
28070;SDS011;15383;48.408;9.968;2024-02-23T10:20:31;1.33;;;1.23;;
28070;SDS011;15383;48.408;9.968;2024-02-23T10:22:57;0.90;;;0.80;;
28070;SDS011;15383;48.408;9.968;2024-02-23T10:25:23;1.70;;;1.33;;
28070;SDS011;15383;48.408;9.968;2024-02-23T10:27:48;1.90;;;0.82;;
28070;SDS011;15383;48.408;9.968;2024-02-23T10:30:14;2.20;;;1.02;;
28070;SDS011;15383;48.408;9.968;2024-02-23T10:32:40;4.90;;;0.93;;
28070;SDS011;15383;48.408;9.968;2024-02-23T10:35:09;5.10;;;1.13;;
28070;SDS011;15383;48.408;9.968;2024-02-23T10:37:38;1.85;;;0.85;;
28070;SDS011;15383;48.408;9.968;2024-02-23T10:40:07;2.45;;;0.85;;
28070;SDS011;15383;48.408;9.968;2024-02-23T10:42:35;2.67;;;0.73;;
28070;SDS011;15383;48.408;9.968;2024-02-23T10:45:02;1.35;;;0.90;;
28070;SDS011;15383;48.408;9.968;2024-02-23T10:47:30;2.58;;;1.00;;
28070;SDS011;15383;48.408;9.968;2024-02-23T10:50:00;8.48;;;1.27;;
28070;SDS011;15383;48.408;9.968;2024-02-23T10:52:27;2.40;;;0.95;;
28070;SDS011;15383;48.408;9.968;2024-02-23T10:54:53;2.13;;;1.05;;
28070;SDS011;15383;48.408;9.968;2024-02-23T10:57:20;0.70;;;0.70;;
28070;SDS011;15383;48.408;9.968;2024-02-23T10:59:46;3.22;;;0.93;;
28070;SDS011;15383;48.408;9.968;2024-02-23T11:02:13;2.63;;;0.80;;
28070;SDS011;15383;48.408;9.968;2024-02-23T11:04:47;1.45;;;0.90;;
28070;SDS011;15383;48.408;9.968;2024-02-23T11:07:15;6.63;;;0.80;;
28070;SDS011;15383;48.408;9.968;2024-02-23T11:09:43;2.42;;;0.60;;
28070;SDS011;15383;48.408;9.968;2024-02-23T11:12:21;3.97;;;0.80;;
28070;SDS011;15383;48.408;9.968;2024-02-23T11:14:51;0.95;;;0.60;;
28070;SDS011;15383;48.408;9.968;2024-02-23T11:17:20;7.28;;;1.20;;
28070;SDS011;15383;48.408;9.968;2024-02-23T11:19:49;6.28;;;1.02;;
28070;SDS011;15383;48.408;9.968;2024-02-23T11:22:15;1.42;;;0.77;;
28070;SDS011;15383;48.408;9.968;2024-02-23T11:24:52;3.25;;;1.10;;
28070;SDS011;15383;48.408;9.968;2024-02-23T11:27:18;6.80;;;0.95;;
28070;SDS011;15383;48.408;9.968;2024-02-23T11:29:47;3.80;;;1.25;;
28070;SDS011;15383;48.408;9.968;2024-02-23T11:32:16;6.30;;;1.10;;
28070;SDS011;15383;48.408;9.968;2024-02-23T11:34:42;2.30;;;0.80;;
28070;SDS011;15383;48.408;9.968;2024-02-23T11:37:19;4.53;;;1.10;;
28070;SDS011;15383;48.408;9.968;2024-02-23T11:39:45;7.75;;;0.95;;
28070;SDS011;15383;48.408;9.968;2024-02-23T11:42:11;4.43;;;1.23;;
28070;SDS011;15383;48.408;9.968;2024-02-23T11:44:37;2.63;;;0.70;;
28070;SDS011;15383;48.408;9.968;2024-02-23T11:47:03;4.30;;;1.17;;
28070;SDS011;15383;48.408;9.968;2024-02-23T11:49:29;1.60;;;0.82;;
28070;SDS011;15383;48.408;9.968;2024-02-23T11:51:55;3.63;;;1.35;;
28070;SDS011;15383;48.408;9.968;2024-02-23T11:54:21;9.25;;;1.20;;
28070;SDS011;15383;48.408;9.968;2024-02-23T11:56:47;3.00;;;1.65;;
28070;SDS011;15383;48.408;9.968;2024-02-23T11:59:14;5.68;;;0.95;;
28070;SDS011;15383;48.408;9.968;2024-02-23T12:01:40;2.60;;;0.82;;
28070;SDS011;15383;48.408;9.968;2024-02-23T12:04:06;2.33;;;0.85;;
28070;SDS011;15383;48.408;9.968;2024-02-23T12:06:33;3.58;;;1.35;;
28070;SDS011;15383;48.408;9.968;2024-02-23T12:08:59;5.10;;;1.50;;
28070;SDS011;15383;48.408;9.968;2024-02-23T12:11:25;2.95;;;1.02;;
28070;SDS011;15383;48.408;9.968;2024-02-23T12:13:52;5.03;;;0.85;;
28070;SDS011;15383;48.408;9.968;2024-02-23T12:16:18;2.22;;;1.17;;
28070;SDS011;15383;48.408;9.968;2024-02-23T12:18:46;4.60;;;0.93;;
28070;SDS011;15383;48.408;9.968;2024-02-23T12:21:18;3.15;;;1.08;;
28070;SDS011;15383;48.408;9.968;2024-02-23T12:23:44;3.03;;;1.05;;
28070;SDS011;15383;48.408;9.968;2024-02-23T12:26:12;3.05;;;0.77;;
28070;SDS011;15383;48.408;9.968;2024-02-23T12:28:38;2.72;;;0.80;;
28070;SDS011;15383;48.408;9.968;2024-02-23T12:31:04;2.38;;;0.90;;
28070;SDS011;15383;48.408;9.968;2024-02-23T12:33:31;3.72;;;1.20;;
28070;SDS011;15383;48.408;9.968;2024-02-23T12:35:59;2.55;;;1.10;;
28070;SDS011;15383;48.408;9.968;2024-02-23T12:38:25;2.55;;;0.85;;
28070;SDS011;15383;48.408;9.968;2024-02-23T12:40:51;9.15;;;1.08;;
28070;SDS011;15383;48.408;9.968;2024-02-23T12:43:17;10.88;;;1.25;;
28070;SDS011;15383;48.408;9.968;2024-02-23T12:45:43;1.58;;;0.85;;
28070;SDS011;15383;48.408;9.968;2024-02-23T12:48:10;10.95;;;0.90;;
28070;SDS011;15383;48.408;9.968;2024-02-23T12:50:36;1.00;;;0.82;;
28070;SDS011;15383;48.408;9.968;2024-02-23T12:53:02;6.28;;;0.68;;
28070;SDS011;15383;48.408;9.968;2024-02-23T12:55:28;1.83;;;0.80;;
28070;SDS011;15383;48.408;9.968;2024-02-23T12:57:54;1.38;;;0.90;;
28070;SDS011;15383;48.408;9.968;2024-02-23T13:00:19;6.93;;;1.25;;
28070;SDS011;15383;48.408;9.968;2024-02-23T13:02:45;5.65;;;0.82;;
28070;SDS011;15383;48.408;9.968;2024-02-23T13:05:11;3.90;;;0.70;;
28070;SDS011;15383;48.408;9.968;2024-02-23T13:07:37;1.88;;;0.80;;
28070;SDS011;15383;48.408;9.968;2024-02-23T13:10:05;11.15;;;1.20;;
28070;SDS011;15383;48.408;9.968;2024-02-23T13:12:31;3.92;;;1.10;;
28070;SDS011;15383;48.408;9.968;2024-02-23T13:14:57;1.58;;;0.70;;
28070;SDS011;15383;48.408;9.968;2024-02-23T13:17:23;4.38;;;0.73;;
28070;SDS011;15383;48.408;9.968;2024-02-23T13:19:48;1.52;;;0.90;;
28070;SDS011;15383;48.408;9.968;2024-02-23T13:22:14;4.30;;;0.82;;
28070;SDS011;15383;48.408;9.968;2024-02-23T13:24:40;2.60;;;1.15;;
28070;SDS011;15383;48.408;9.968;2024-02-23T13:27:06;4.25;;;1.08;;
28070;SDS011;15383;48.408;9.968;2024-02-23T13:29:31;7.53;;;1.08;;
28070;SDS011;15383;48.408;9.968;2024-02-23T13:31:57;1.65;;;1.17;;
28070;SDS011;15383;48.408;9.968;2024-02-23T13:34:22;1.25;;;0.90;;
28070;SDS011;15383;48.408;9.968;2024-02-23T13:36:48;3.25;;;1.10;;
28070;SDS011;15383;48.408;9.968;2024-02-23T13:39:15;3.97;;;0.93;;
28070;SDS011;15383;48.408;9.968;2024-02-23T13:41:40;4.60;;;1.15;;
28070;SDS011;15383;48.408;9.968;2024-02-23T13:44:06;2.47;;;1.10;;
28070;SDS011;15383;48.408;9.968;2024-02-23T13:46:35;2.13;;;0.98;;
28070;SDS011;15383;48.408;9.968;2024-02-23T13:49:04;5.13;;;1.10;;
28070;SDS011;15383;48.408;9.968;2024-02-23T13:51:33;1.60;;;1.00;;
28070;SDS011;15383;48.408;9.968;2024-02-23T13:53:59;2.10;;;0.95;;
28070;SDS011;15383;48.408;9.968;2024-02-23T13:56:25;3.42;;;1.10;;
28070;SDS011;15383;48.408;9.968;2024-02-23T13:58:51;4.45;;;1.63;;
28070;SDS011;15383;48.408;9.968;2024-02-23T14:01:17;4.88;;;1.20;;
28070;SDS011;15383;48.408;9.968;2024-02-23T14:03:42;2.38;;;1.20;;
28070;SDS011;15383;48.408;9.968;2024-02-23T14:06:08;4.07;;;1.05;;
28070;SDS011;15383;48.408;9.968;2024-02-23T14:08:34;3.67;;;1.48;;
28070;SDS011;15383;48.408;9.968;2024-02-23T14:11:02;3.08;;;1.13;;
28070;SDS011;15383;48.408;9.968;2024-02-23T14:13:28;5.03;;;1.38;;
28070;SDS011;15383;48.408;9.968;2024-02-23T14:15:54;5.13;;;1.25;;
28070;SDS011;15383;48.408;9.968;2024-02-23T14:18:19;5.68;;;1.40;;
28070;SDS011;15383;48.408;9.968;2024-02-23T14:20:45;2.85;;;1.33;;
28070;SDS011;15383;48.408;9.968;2024-02-23T14:23:10;1.48;;;0.90;;
28070;SDS011;15383;48.408;9.968;2024-02-23T14:25:36;1.63;;;1.20;;
28070;SDS011;15383;48.408;9.968;2024-02-23T14:28:02;4.10;;;1.20;;
28070;SDS011;15383;48.408;9.968;2024-02-23T14:30:27;2.28;;;1.30;;
28070;SDS011;15383;48.408;9.968;2024-02-23T14:32:53;7.72;;;2.40;;
28070;SDS011;15383;48.408;9.968;2024-02-23T14:35:18;6.38;;;1.38;;
28070;SDS011;15383;48.408;9.968;2024-02-23T14:37:44;2.13;;;1.40;;
28070;SDS011;15383;48.408;9.968;2024-02-23T14:40:10;3.70;;;1.40;;
28070;SDS011;15383;48.408;9.968;2024-02-23T14:42:36;5.35;;;1.17;;